Time,TemperatureF,DewpointF,PressureIn,WindDirection,WindDirectionDegrees,WindSpeedMPH,WindSpeedGustMPH,Humidity,HourlyPrecipIn,Conditions,Clouds,dailyrainin,SoftwareType,DateUTC
2013-07-25 00:02:00,60.0,-99.9,29.97,South,184,6.0,7.0,-999,-99.99,,,-99.99,,2013-07-25 08:02:00,
2013-07-25 00:12:00,61.0,-99.9,29.97,South,178,6.0,7.0,-999,-99.99,,,-99.99,,2013-07-25 08:12:00,
2013-07-25 00:32:00,61.0,-99.9,29.96,SSW,199,6.0,8.0,-999,-99.99,,,-99.99,,2013-07-25 08:32:00,
2013-07-25 00:44:00,61.0,-99.9,29.97,South,189,5.0,6.0,-999,-99.99,,,-99.99,,2013-07-25 08:44:00,
2013-07-25 01:02:00,61.0,-99.9,29.97,SSW,194,6.0,6.0,-999,-99.99,,,-99.99,,2013-07-25 09:02:00,
2013-07-25 01:43:00,60.0,-99.9,29.96,South,181,5.0,7.0,-999,-99.99,,,-99.99,,2013-07-25 09:43:00,
2013-07-25 02:03:00,61.0,-99.9,29.97,SSW,206,5.0,7.0,-999,-99.99,,,-99.99,,2013-07-25 10:03:00,
2013-07-25 02:22:00,61.0,-99.9,29.97,SW,223,4.0,6.0,-999,-99.99,,,-99.99,,2013-07-25 10:22:00,
2013-07-25 03:43:00,60.0,-99.9,29.98,SSW,206,3.0,5.0,-999,-99.99,,,-99.99,,2013-07-25 11:43:00,
2013-07-25 04:03:00,61.0,-99.9,29.98,SW,218,6.0,8.0,-999,-99.99,,,-99.99,,2013-07-25 12:03:00,
2013-07-25 04:45:00,59.0,-99.9,29.98,SW,217,6.0,7.0,-999,-99.99,,,-99.99,,2013-07-25 12:45:00,
2013-07-25 05:03:00,59.0,-99.9,29.98,SW,216,5.0,7.0,-999,-99.99,,,-99.99,,2013-07-25 13:03:00,
2013-07-25 05:12:00,59.0,-99.9,29.98,SW,218,6.0,8.0,-999,-99.99,,,-99.99,,2013-07-25 13:12:00,
2013-07-25 05:43:00,59.0,-99.9,29.98,SW,226,8.0,12.0,-999,-99.99,,,-99.99,,2013-07-25 13:43:00,
2013-07-25 05:53:00,59.0,-99.9,29.98,SW,232,8.0,9.0,-999,-99.99,,,-99.99,,2013-07-25 13:53:00,
2013-07-25 06:02:00,59.0,-99.9,29.99,WSW,239,6.0,8.0,-999,-99.99,,,-99.99,,2013-07-25 14:02:00,
2013-07-25 06:33:00,58.0,-99.9,29.99,SW,217,5.0,6.0,-999,-99.99,,,-99.99,,2013-07-25 14:33:00,
2013-07-25 06:43:00,58.0,-99.9,29.99,SW,217,5.0,6.0,-999,-99.99,,,-99.99,,2013-07-25 14:43:00,
2013-07-25 06:53:00,58.0,-99.9,29.99,SW,217,5.0,6.0,-999,-99.99,,,-99.99,,2013-07-25 14:53:00,
2013-07-25 07:23:00,58.0,-99.9,29.99,SW,216,6.0,9.0,-999,-99.99,,,-99.99,,2013-07-25 15:23:00,
2013-07-25 07:44:00,57.0,-99.9,30.00,SW,215,9.0,10.0,-999,-99.99,,,-99.99,,2013-07-25 15:44:00,
2013-07-25 08:02:00,57.0,-99.9,30.00,SW,221,9.0,10.0,-999,-99.99,,,-99.99,,2013-07-25 16:02:00,
2013-07-25 08:45:00,58.0,-99.9,30.01,SW,214,14.0,17.0,-999,-99.99,,,-99.99,,2013-07-25 16:45:00,
2013-07-25 09:12:00,58.0,-99.9,30.01,South,172,8.0,14.0,-999,-99.99,,,-99.99,,2013-07-25 17:12:00,
2013-07-25 09:22:00,59.0,-99.9,30.01,South,189,9.0,15.0,-999,-99.99,,,-99.99,,2013-07-25 17:22:00,
2013-07-25 09:32:00,59.0,-99.9,30.01,South,189,9.0,15.0,-999,-99.99,,,-99.99,,2013-07-25 17:32:00,
2013-07-25 09:43:00,59.0,-99.9,30.02,South,181,9.0,14.0,-999,-99.99,,,-99.99,,2013-07-25 17:43:00,
2013-07-25 10:12:00,59.0,-99.9,30.01,South,187,10.0,15.0,-999,-99.99,,,-99.99,,2013-07-25 18:12:00,
2013-07-25 10:33:00,60.0,-99.9,30.02,SSW,192,10.0,12.0,-999,-99.99,,,-99.99,,2013-07-25 18:33:00,
2013-07-25 10:43:00,60.0,-99.9,30.01,South,184,11.0,15.0,-999,-99.99,,,-99.99,,2013-07-25 18:43:00,
2013-07-25 11:03:00,60.0,-99.9,30.02,South,190,11.0,14.0,-999,-99.99,,,-99.99,,2013-07-25 19:03:00,
2013-07-25 11:23:00,60.0,-99.9,30.02,SSW,196,10.0,12.0,-999,-99.99,,,-99.99,,2013-07-25 19:23:00,
2013-07-25 11:43:00,60.0,-99.9,30.02,SSW,199,9.0,11.0,-999,-99.99,,,-99.99,,2013-07-25 19:43:00,
2013-07-25 12:03:00,59.0,-99.9,30.02,SSW,204,9.0,11.0,-999,-99.99,,,-99.99,,2013-07-25 20:03:00,
2013-07-25 12:43:00,59.0,-99.9,30.03,SSW,194,7.0,9.0,-999,-99.99,,,-99.99,,2013-07-25 20:43:00,
2013-07-25 13:03:00,60.0,-99.9,30.03,SSW,204,7.0,8.0,-999,-99.99,,,-99.99,,2013-07-25 21:03:00,
2013-07-25 14:03:00,59.0,-99.9,30.03,SSW,195,10.0,11.0,-999,-99.99,,,-99.99,,2013-07-25 22:03:00,
2013-07-25 15:02:00,60.0,-99.9,30.03,South,188,10.0,12.0,-999,-99.99,,,-99.99,,2013-07-25 23:02:00,
2013-07-25 15:43:00,59.0,-99.9,30.03,SSW,202,13.0,14.0,-999,-99.99,,,-99.99,,2013-07-25 23:43:00,
2013-07-25 17:02:00,58.0,-99.9,30.02,SSW,197,15.0,16.0,-999,-99.99,,,-99.99,,2013-07-26 01:02:00,
2013-07-25 17:12:00,58.0,-99.9,30.03,SSW,200,15.0,17.0,-999,-99.99,,,-99.99,,2013-07-26 01:12:00,
2013-07-25 17:22:00,58.0,-99.9,30.03,SSW,200,14.0,16.0,-999,-99.99,,,-99.99,,2013-07-26 01:22:00,
2013-07-25 18:02:00,58.0,-99.9,30.02,SSW,200,15.0,19.0,-999,-99.99,,,-99.99,,2013-07-26 02:02:00,
2013-07-25 18:22:00,58.0,-99.9,30.02,SSW,201,13.0,19.0,-999,-99.99,,,-99.99,,2013-07-26 02:22:00,
2013-07-25 18:43:00,58.0,-99.9,30.02,SSW,205,12.0,16.0,-999,-99.99,,,-99.99,,2013-07-26 02:43:00,
2013-07-25 18:52:00,58.0,-99.9,30.02,SSW,200,10.0,12.0,-999,-99.99,,,-99.99,,2013-07-26 02:52:00,
2013-07-25 19:02:00,58.0,-99.9,30.02,SW,216,12.0,16.0,-999,-99.99,,,-99.99,,2013-07-26 03:02:00,
2013-07-25 19:44:00,57.0,-99.9,30.01,SSW,193,11.0,14.0,-999,-99.99,,,-99.99,,2013-07-26 03:44:00,
2013-07-25 20:02:00,57.0,-99.9,30.01,SSW,192,11.0,13.0,-999,-99.99,,,-99.99,,2013-07-26 04:02:00,
2013-07-25 20:12:00,57.0,-99.9,30.01,SSW,192,11.0,13.0,-999,-99.99,,,-99.99,,2013-07-26 04:12:00,
2013-07-25 20:23:00,57.0,-99.9,30.01,SSW,192,11.0,15.0,-999,-99.99,,,-99.99,,2013-07-26 04:23:00,
2013-07-25 20:43:00,58.0,-99.9,30.01,SSW,200,11.0,15.0,-999,-99.99,,,-99.99,,2013-07-26 04:43:00,
2013-07-25 20:53:00,58.0,-99.9,30.01,SSW,197,11.0,14.0,-999,-99.99,,,-99.99,,2013-07-26 04:53:00,
2013-07-25 21:02:00,58.0,-99.9,30.01,SSW,197,11.0,14.0,-999,-99.99,,,-99.99,,2013-07-26 05:02:00,
2013-07-25 21:22:00,58.0,-99.9,30.02,SSW,195,9.0,12.0,-999,-99.99,,,-99.99,,2013-07-26 05:22:00,
2013-07-25 21:32:00,57.0,-99.9,30.03,SSW,205,8.0,9.0,-999,-99.99,,,-99.99,,2013-07-26 05:32:00,
2013-07-25 22:02:00,57.0,-99.9,30.03,SSW,202,6.0,10.0,-999,-99.99,,,-99.99,,2013-07-26 06:02:00,
2013-07-25 22:22:00,57.0,-99.9,30.04,SSW,211,8.0,9.0,-999,-99.99,,,-99.99,,2013-07-26 06:22:00,
2013-07-25 22:33:00,57.0,-99.9,30.04,South,179,4.0,6.0,-999,-99.99,,,-99.99,,2013-07-26 06:33:00,
2013-07-25 22:43:00,57.0,-99.9,30.05,SSE,156,4.0,5.0,-999,-99.99,,,-99.99,,2013-07-26 06:43:00,
2013-07-25 23:02:00,58.0,-99.9,30.07,SSE,155,1.0,5.0,-999,-99.99,,,-99.99,,2013-07-26 07:02:00,
2013-07-25 23:22:00,58.0,-99.9,30.07,North,5,5.0,6.0,-999,-99.99,,,-99.99,,2013-07-26 07:22:00,
2013-07-25 23:32:00,58.0,-99.9,30.08,West,270,5.0,8.0,-999,-99.99,,,-99.99,,2013-07-26 07:32:00,
2013-07-25 23:43:00,57.0,-99.9,30.09,NNW,328,5.0,6.0,-999,-99.99,,,-99.99,,2013-07-26 07:43:00,